createdAt,value
2023-02-21T00:00:45.672Z,99.90
2023-02-21T00:03:30.873Z,99.90
2023-02-21T00:06:16.088Z,99.90
2023-02-21T00:09:03.668Z,99.90
2023-02-21T00:11:48.634Z,99.90
2023-02-21T00:14:36.322Z,99.90
2023-02-21T00:17:23.868Z,99.90
2023-02-21T00:20:11.504Z,99.90
2023-02-21T00:22:56.649Z,99.90
2023-02-21T00:25:41.655Z,99.90
2023-02-21T00:28:26.824Z,99.90
2023-02-21T00:31:12.062Z,99.90
2023-02-21T00:33:59.850Z,99.90
2023-02-21T00:36:45.031Z,99.90
2023-02-21T00:39:32.602Z,99.90
2023-02-21T00:42:17.754Z,99.90
2023-02-21T00:45:02.857Z,99.90
2023-02-21T00:47:50.486Z,99.90
2023-02-21T00:50:35.567Z,99.90
2023-02-21T00:53:23.196Z,99.90
2023-02-21T00:56:10.642Z,99.90
2023-02-21T00:58:55.653Z,99.90
2023-02-21T01:01:40.736Z,99.90
2023-02-21T01:04:28.729Z,99.90
2023-02-21T01:07:14.165Z,99.90
2023-02-21T01:09:59.172Z,99.90
2023-02-21T01:12:46.817Z,99.90
2023-02-21T01:15:34.582Z,99.90
2023-02-21T01:18:19.880Z,99.90
2023-02-21T01:21:04.865Z,99.90
2023-02-21T01:23:52.669Z,99.90
2023-02-21T01:26:37.717Z,99.90
2023-02-21T01:29:22.836Z,99.90
2023-02-21T01:32:10.354Z,99.90
2023-02-21T01:34:57.963Z,99.90
2023-02-21T01:37:43.226Z,99.90
2023-02-21T01:40:32.860Z,99.90
2023-02-21T01:43:20.300Z,99.90
2023-02-21T01:46:09.410Z,99.90
2023-02-21T01:48:55.342Z,99.90
2023-02-21T01:51:45.431Z,99.90
2023-02-21T01:54:30.503Z,99.90
2023-02-21T01:57:18.290Z,99.90
2023-02-21T02:00:03.383Z,99.90
2023-02-21T02:02:56.392Z,99.90
2023-02-21T02:05:45.503Z,99.90
2023-02-21T02:08:31.046Z,99.90
2023-02-21T02:11:42.474Z,99.90
2023-02-21T02:14:24.205Z,99.90
2023-02-21T02:16:58.581Z,99.90
2023-02-21T02:19:42.383Z,99.90
2023-02-21T02:22:30.229Z,99.90
2023-02-21T02:25:18.765Z,99.90
2023-02-21T02:27:45.392Z,99.90
2023-02-21T02:30:33.403Z,99.90
2023-02-21T02:33:05.376Z,99.90
2023-02-21T02:35:36.368Z,99.90
2023-02-21T02:38:05.430Z,99.90
2023-02-21T02:40:32.088Z,99.90
2023-02-21T02:43:04.980Z,99.90
2023-02-21T02:45:44.485Z,99.90
2023-02-21T02:48:17.852Z,99.90
2023-02-21T02:50:46.088Z,99.90
2023-02-21T02:53:15.602Z,99.90
2023-02-21T02:55:42.246Z,99.90
2023-02-21T02:58:10.824Z,99.90
2023-02-21T03:00:41.894Z,99.90
2023-02-21T03:03:23.579Z,99.90
2023-02-21T03:06:17.028Z,99.90
2023-02-21T03:08:55.139Z,99.90
2023-02-21T03:11:25.293Z,99.90
2023-02-21T03:13:54.329Z,99.90
2023-02-21T03:16:39.421Z,99.90
2023-02-21T03:19:12.195Z,99.90
2023-02-21T03:21:43.418Z,99.90
2023-02-21T03:24:13.696Z,99.90
2023-02-21T03:26:42.061Z,99.90
2023-02-21T03:29:08.782Z,99.90
2023-02-21T03:31:41.442Z,99.90
2023-02-21T03:34:12.822Z,99.90
2023-02-21T03:36:41.965Z,99.90
2023-02-21T03:39:08.648Z,99.90
2023-02-21T03:41:37.794Z,99.90
2023-02-21T03:44:09.277Z,99.90
2023-02-21T03:46:40.862Z,99.90
2023-02-21T03:49:07.710Z,99.90
2023-02-21T03:51:36.524Z,99.90
2023-02-21T03:54:03.190Z,99.90
2023-02-21T03:56:41.253Z,99.90
2023-02-21T03:59:10.974Z,99.90
2023-02-21T04:01:40.224Z,99.90
2023-02-21T04:04:07.362Z,99.90
2023-02-21T04:06:34.193Z,99.90
2023-02-21T04:09:00.936Z,99.90
2023-02-21T04:11:29.792Z,99.90
2023-02-21T04:13:56.454Z,99.90
2023-02-21T04:16:23.178Z,99.90
2023-02-21T04:18:53.138Z,99.90
2023-02-21T04:21:27.313Z,99.90
2023-02-21T04:23:59.373Z,99.90
2023-02-21T04:26:31.373Z,99.90
2023-02-21T04:28:58.164Z,99.90
2023-02-21T04:31:27.020Z,99.90
2023-02-21T04:34:10.666Z,99.90
2023-02-21T04:36:38.611Z,99.90
2023-02-21T04:39:08.134Z,99.90
2023-02-21T04:41:34.845Z,99.90
2023-02-21T04:44:06.482Z,99.90
2023-02-21T04:46:33.445Z,99.90
2023-02-21T04:49:00.273Z,99.90
2023-02-21T04:51:29.569Z,99.90
2023-02-21T04:53:58.677Z,99.90
2023-02-21T04:56:27.355Z,99.90
2023-02-21T04:58:54.056Z,99.90
2023-02-21T05:01:23.236Z,99.90
2023-02-21T05:03:52.257Z,99.90
2023-02-21T05:06:25.387Z,99.90
2023-02-21T05:08:52.277Z,99.90
2023-02-21T05:11:19.736Z,99.90
2023-02-21T05:13:48.954Z,99.90
2023-02-21T05:16:18.053Z,99.90
2023-02-21T05:18:48.054Z,99.90
2023-02-21T05:21:16.224Z,99.90
2023-02-21T05:23:55.538Z,99.90
2023-02-21T05:26:30.972Z,99.90
2023-02-21T05:28:57.624Z,99.90
2023-02-21T05:31:26.519Z,99.90
2023-02-21T05:33:55.639Z,99.90
2023-02-21T05:36:25.341Z,99.90
2023-02-21T05:38:55.501Z,99.90
2023-02-21T05:41:22.421Z,99.90
2023-02-21T05:43:51.708Z,99.90
2023-02-21T05:46:19.768Z,99.90
2023-02-21T05:48:50.437Z,99.90
2023-02-21T05:51:17.239Z,99.90
2023-02-21T05:53:44.178Z,99.90
2023-02-21T05:56:11.181Z,99.90
2023-02-21T05:58:40.111Z,99.90
2023-02-21T06:01:09.191Z,99.90
2023-02-21T06:03:38.308Z,99.90
2023-02-21T06:06:07.318Z,99.90
2023-02-21T06:08:41.714Z,99.90
2023-02-21T06:11:11.065Z,99.90
2023-02-21T06:13:42.843Z,99.90
2023-02-21T06:16:11.875Z,99.90
2023-02-21T06:18:38.589Z,99.90
2023-02-21T06:21:07.601Z,99.90
2023-02-21T06:23:34.261Z,99.90
2023-02-21T06:26:00.926Z,99.90
2023-02-21T06:28:28.392Z,99.90
2023-02-21T06:30:55.403Z,99.90
2023-02-21T06:33:22.192Z,99.90
2023-02-21T06:35:51.192Z,99.90
2023-02-21T06:38:20.209Z,99.90
2023-02-21T06:40:49.300Z,99.90
2023-02-21T06:43:16.074Z,99.90
2023-02-21T06:45:42.735Z,99.90
2023-02-21T06:48:09.366Z,99.90
2023-02-21T06:50:36.051Z,99.90
2023-02-21T06:53:02.665Z,99.90
2023-02-21T06:55:29.260Z,99.90
2023-02-21T06:57:55.845Z,99.90
2023-02-21T07:00:22.443Z,99.90
2023-02-21T07:02:51.487Z,99.90
2023-02-21T07:05:18.251Z,99.90
2023-02-21T07:07:45.471Z,99.90
2023-02-21T07:10:14.510Z,99.90
2023-02-21T07:12:41.147Z,99.90
2023-02-21T07:15:10.296Z,99.90
2023-02-21T07:17:36.957Z,99.90
2023-02-21T07:20:04.595Z,99.90
2023-02-21T07:22:33.654Z,99.90
2023-02-21T07:25:00.261Z,99.90
2023-02-21T07:27:26.885Z,99.90
2023-02-21T07:29:53.474Z,99.90
2023-02-21T07:34:49.320Z,99.90
2023-02-21T07:37:15.929Z,99.90
2023-02-21T07:39:47.245Z,99.90
2023-02-21T07:42:13.914Z,99.90
2023-02-21T07:44:43.005Z,99.90
2023-02-21T07:47:10.710Z,99.90
2023-02-21T07:49:43.307Z,99.90
2023-02-21T07:52:09.888Z,99.90
2023-02-21T07:54:36.609Z,99.90
2023-02-21T07:57:03.273Z,99.90
2023-02-21T07:59:32.533Z,99.90
2023-02-21T08:01:59.382Z,99.90
2023-02-21T08:04:26.003Z,99.90
2023-02-21T08:06:55.667Z,99.90
2023-02-21T08:09:22.777Z,99.90
2023-02-21T08:11:49.431Z,99.90
2023-02-21T08:14:16.192Z,99.90
2023-02-21T08:16:45.023Z,99.90
2023-02-21T08:19:14.051Z,99.90
2023-02-21T08:21:47.102Z,99.90
2023-02-21T08:24:16.361Z,99.90
2023-02-21T08:26:45.342Z,99.90
2023-02-21T08:29:14.902Z,99.90
2023-02-21T08:31:42.368Z,99.90
2023-02-21T08:34:09.098Z,99.90
2023-02-21T08:36:37.008Z,99.90
2023-02-21T08:39:06.526Z,99.90
2023-02-21T08:41:38.397Z,99.90
2023-02-21T08:44:05.916Z,99.90
2023-02-21T08:46:32.618Z,99.90
2023-02-21T08:48:59.351Z,99.90
2023-02-21T08:51:29.831Z,99.90
2023-02-21T08:53:56.649Z,99.90
2023-02-21T08:56:23.877Z,99.90
2023-02-21T08:58:50.768Z,99.90
2023-02-21T09:01:17.956Z,99.90
2023-02-21T09:03:44.766Z,99.90
2023-02-21T09:06:11.442Z,99.90
2023-02-21T09:08:38.710Z,99.90
2023-02-21T09:11:08.143Z,99.90
2023-02-21T09:13:34.815Z,99.90
2023-02-21T09:16:02.379Z,99.90
2023-02-21T09:18:29.117Z,99.90
2023-02-21T09:20:59.301Z,99.90
2023-02-21T09:23:26.614Z,99.90
2023-02-21T09:25:56.216Z,99.90
2023-02-21T09:28:25.315Z,99.90
2023-02-21T09:30:52.016Z,99.90
2023-02-21T09:33:18.679Z,99.90
2023-02-21T09:35:45.285Z,99.90
2023-02-21T09:38:11.853Z,99.90
2023-02-21T09:40:44.199Z,99.90
2023-02-21T09:43:18.043Z,99.90
2023-02-21T09:45:45.249Z,99.90
2023-02-21T09:48:17.250Z,99.90
2023-02-21T09:50:48.941Z,99.90
2023-02-21T09:53:24.389Z,99.90
2023-02-21T09:55:52.158Z,99.90
2023-02-21T09:58:21.426Z,99.90
2023-02-21T10:00:50.374Z,99.90
2023-02-21T10:03:40.023Z,99.90
2023-02-21T10:06:09.484Z,99.90
2023-02-21T10:08:48.595Z,99.90
2023-02-21T10:11:34.842Z,99.90
2023-02-21T10:14:01.495Z,99.90
2023-02-21T10:16:40.416Z,99.90
2023-02-21T10:19:12.865Z,99.90
2023-02-21T10:21:44.391Z,99.90
2023-02-21T10:24:13.064Z,99.90
2023-02-21T10:26:42.300Z,99.90
2023-02-21T10:29:20.006Z,99.90
2023-02-21T10:31:49.161Z,99.90
2023-02-21T10:34:27.519Z,99.90
2023-02-21T10:36:55.217Z,99.90
2023-02-21T10:39:26.228Z,99.90
2023-02-21T10:41:53.218Z,99.90
2023-02-21T10:44:25.567Z,99.90
2023-02-21T10:46:58.594Z,99.90
2023-02-21T10:49:29.256Z,99.90
2023-02-21T10:52:22.298Z,99.90
2023-02-21T10:55:01.021Z,99.90
2023-02-21T10:57:28.109Z,99.90
2023-02-21T10:59:56.017Z,99.90
2023-02-21T11:02:29.328Z,99.90
2023-02-21T11:05:09.946Z,99.90
2023-02-21T11:07:38.966Z,99.90
2023-02-21T11:10:28.208Z,99.90
2023-02-21T11:13:02.102Z,99.90
2023-02-21T11:15:30.951Z,99.90
2023-02-21T11:18:17.934Z,99.90
2023-02-21T11:20:45.359Z,99.90
2023-02-21T11:23:38.308Z,99.90
2023-02-21T11:26:04.904Z,99.90
2023-02-21T11:28:37.017Z,99.90
2023-02-21T11:31:08.814Z,99.90
2023-02-21T11:33:54.340Z,99.90
2023-02-21T11:36:26.381Z,99.90
2023-02-21T11:39:13.010Z,99.90
2023-02-21T11:41:47.066Z,99.90
2023-02-21T11:44:22.659Z,99.90
2023-02-21T11:46:50.734Z,99.90
2023-02-21T11:49:19.796Z,99.90
2023-02-21T11:51:48.135Z,99.90
2023-02-21T11:54:19.597Z,99.90
2023-02-21T11:56:52.031Z,99.90
2023-02-21T11:59:39.891Z,99.90
2023-02-21T12:02:25.484Z,99.90
2023-02-21T12:04:52.078Z,99.90
2023-02-21T12:07:29.272Z,99.90
2023-02-21T12:10:06.095Z,99.90
2023-02-21T12:12:37.488Z,99.90
2023-02-21T12:15:04.052Z,99.90
2023-02-21T12:17:53.281Z,99.90
2023-02-21T12:20:26.103Z,99.90
2023-02-21T12:22:58.582Z,99.90
2023-02-21T12:25:31.285Z,99.90
2023-02-21T12:28:17.293Z,99.90
2023-02-21T12:30:56.375Z,99.90
2023-02-21T12:33:34.227Z,99.90
2023-02-21T12:36:16.618Z,99.90
2023-02-21T12:38:51.328Z,99.90
2023-02-21T12:41:17.920Z,99.90
2023-02-21T12:44:04.449Z,99.90
2023-02-21T12:46:31.057Z,99.90
2023-02-21T12:48:57.670Z,99.40
2023-02-21T12:51:32.792Z,99.00
2023-02-21T12:54:07.529Z,99.00
2023-02-21T12:56:44.685Z,99.00
2023-02-21T12:59:11.252Z,99.10
2023-02-21T13:01:47.245Z,99.00
2023-02-21T13:04:38.221Z,98.80
2023-02-21T13:07:25.571Z,99.00
2023-02-21T13:10:15.462Z,98.40
2023-02-21T13:12:58.831Z,98.50
2023-02-21T13:15:26.832Z,98.30
2023-02-21T13:18:13.591Z,98.10
2023-02-21T13:20:42.301Z,98.00
2023-02-21T13:23:40.559Z,97.50
2023-02-21T13:26:13.295Z,97.60
2023-02-21T13:28:41.465Z,97.50
2023-02-21T13:31:18.867Z,97.40
2023-02-21T13:33:52.612Z,97.50
2023-02-21T13:36:30.050Z,97.40
2023-02-21T13:39:11.483Z,97.20
2023-02-21T13:41:43.812Z,96.90
2023-02-21T13:44:20.970Z,97.20
2023-02-21T13:46:50.662Z,97.00
2023-02-21T13:49:35.969Z,96.30
2023-02-21T13:52:14.918Z,96.30
2023-02-21T13:55:00.342Z,96.80
2023-02-21T13:57:34.221Z,96.60
2023-02-21T14:00:20.807Z,96.30
2023-02-21T14:02:57.488Z,96.60
2023-02-21T14:05:25.053Z,95.70
2023-02-21T14:08:03.011Z,95.70
2023-02-21T14:10:34.356Z,95.60
2023-02-21T14:13:02.857Z,95.50
2023-02-21T14:15:45.599Z,95.60
2023-02-21T14:18:21.427Z,95.60
2023-02-21T14:20:52.557Z,95.00
2023-02-21T14:23:23.062Z,94.90
2023-02-21T14:26:00.061Z,94.90
2023-02-21T14:28:45.847Z,94.60
2023-02-21T14:31:13.172Z,94.50
2023-02-21T14:33:42.840Z,94.90
2023-02-21T14:36:15.020Z,95.50
2023-02-21T14:38:42.994Z,95.90
2023-02-21T14:41:15.751Z,96.30
2023-02-21T14:43:51.484Z,96.20
2023-02-21T14:46:34.604Z,96.40
2023-02-21T14:49:13.421Z,96.50
2023-02-21T14:51:43.195Z,96.80
2023-02-21T14:54:28.607Z,97.00
2023-02-21T14:57:10.835Z,97.30
2023-02-21T14:59:57.681Z,97.60
2023-02-21T15:02:27.259Z,98.00
2023-02-21T15:05:06.096Z,97.90
2023-02-21T15:07:47.955Z,97.80
2023-02-21T15:10:20.684Z,97.80
2023-02-21T15:13:00.058Z,98.40
2023-02-21T15:15:29.554Z,98.40
2023-02-21T15:18:00.554Z,98.70
2023-02-21T15:20:27.294Z,98.70
2023-02-21T15:23:12.605Z,98.80
2023-02-21T15:25:39.228Z,98.90
2023-02-21T15:28:09.962Z,99.00
2023-02-21T15:30:38.470Z,99.20
2023-02-21T15:33:16.448Z,99.30
2023-02-21T15:35:48.129Z,99.60
2023-02-21T15:38:20.721Z,99.80
2023-02-21T15:40:48.296Z,99.90
2023-02-21T15:43:22.621Z,99.90
2023-02-21T15:45:51.337Z,99.90
2023-02-21T15:48:18.067Z,99.90
2023-02-21T15:50:48.224Z,99.90
2023-02-21T15:53:21.446Z,99.90
2023-02-21T15:55:49.057Z,99.90
2023-02-21T15:58:18.521Z,99.90
2023-02-21T16:00:49.110Z,99.90
2023-02-21T16:03:41.925Z,99.90
2023-02-21T16:06:17.461Z,99.90
2023-02-21T16:08:53.207Z,99.90
2023-02-21T16:11:20.251Z,99.90
2023-02-21T16:13:47.066Z,99.90
2023-02-21T16:16:13.795Z,99.90
2023-02-21T16:18:40.833Z,99.90
2023-02-21T16:21:08.122Z,99.90
2023-02-21T16:23:41.797Z,99.90
2023-02-21T16:26:09.247Z,99.90
2023-02-21T16:28:36.738Z,99.90
2023-02-21T16:31:04.918Z,99.90
2023-02-21T16:33:34.407Z,99.90
2023-02-21T16:36:04.429Z,99.90
2023-02-21T16:38:33.552Z,99.90
2023-02-21T16:41:00.132Z,99.90
2023-02-21T16:43:28.379Z,99.90
2023-02-21T16:45:56.413Z,99.90
2023-02-21T16:48:28.742Z,99.90
2023-02-21T16:50:55.546Z,99.90
2023-02-21T16:53:24.850Z,99.90
2023-02-21T16:55:51.696Z,99.90
2023-02-21T16:58:19.344Z,99.90
2023-02-21T17:00:46.103Z,99.90
2023-02-21T17:03:15.146Z,99.90
2023-02-21T17:05:41.932Z,99.90
2023-02-21T17:08:08.909Z,99.90
2023-02-21T17:10:35.610Z,99.90
2023-02-21T17:13:04.620Z,99.90
2023-02-21T17:15:32.149Z,99.90
2023-02-21T17:18:01.450Z,99.90
2023-02-21T17:20:28.143Z,99.90
2023-02-21T17:22:55.294Z,99.90
2023-02-21T17:25:22.824Z,99.90
2023-02-21T17:27:52.109Z,99.90
2023-02-21T17:30:19.922Z,99.90
2023-02-21T17:32:49.262Z,99.90
2023-02-21T17:35:16.965Z,99.90
2023-02-21T17:37:47.453Z,99.90
2023-02-21T17:40:14.389Z,99.90
2023-02-21T17:42:43.541Z,99.90
2023-02-21T17:45:10.834Z,99.90
2023-02-21T17:47:37.431Z,99.90
2023-02-21T17:50:04.607Z,99.90
2023-02-21T17:52:33.741Z,99.90
2023-02-21T17:55:07.992Z,99.90
2023-02-21T17:57:37.332Z,99.90
2023-02-21T18:00:13.424Z,99.90
2023-02-21T18:02:40.027Z,99.90
2023-02-21T18:05:08.583Z,99.90
2023-02-21T18:07:37.583Z,99.90
2023-02-21T18:10:04.611Z,99.90
2023-02-21T18:12:34.048Z,99.90
2023-02-21T18:15:01.162Z,99.90
2023-02-21T18:17:27.732Z,99.90
2023-02-21T18:19:54.393Z,99.90
2023-02-21T18:22:21.006Z,99.90
2023-02-21T18:24:49.910Z,99.90
2023-02-21T18:27:16.628Z,99.90
2023-02-21T18:29:43.244Z,99.90
2023-02-21T18:32:09.969Z,99.90
2023-02-21T18:34:36.644Z,99.90
2023-02-21T18:37:03.303Z,99.90
2023-02-21T18:39:29.884Z,99.90
2023-02-21T18:41:58.705Z,99.90
2023-02-21T18:44:25.560Z,99.90
2023-02-21T18:46:54.514Z,99.90
2023-02-21T18:49:21.674Z,99.90
2023-02-21T18:51:48.565Z,99.90
2023-02-21T18:54:15.543Z,99.90
2023-02-21T18:56:49.372Z,99.90
2023-02-21T18:59:20.737Z,99.90
2023-02-21T19:01:48.607Z,99.90
2023-02-21T19:04:18.120Z,99.90
2023-02-21T19:06:47.724Z,99.90
2023-02-21T19:09:14.471Z,99.90
2023-02-21T19:11:41.106Z,99.90
2023-02-21T19:14:10.016Z,99.90
2023-02-21T19:16:36.787Z,99.90
2023-02-21T19:19:03.531Z,99.90
2023-02-21T19:21:30.350Z,99.90
2023-02-21T19:23:57.165Z,99.90
2023-02-21T19:26:27.048Z,99.90
2023-02-21T19:28:53.997Z,99.90
2023-02-21T19:31:25.742Z,99.90
2023-02-21T19:33:52.567Z,99.90
2023-02-21T19:36:20.569Z,99.90
2023-02-21T19:38:47.328Z,99.90
2023-02-21T19:41:17.971Z,99.90
2023-02-21T19:43:47.005Z,99.90
2023-02-21T19:46:23.197Z,99.90
2023-02-21T19:48:49.935Z,99.90
2023-02-21T19:51:17.741Z,99.90
2023-02-21T19:53:44.699Z,99.90
2023-02-21T19:56:13.896Z,99.90
2023-02-21T19:58:40.506Z,99.90
2023-02-21T20:01:07.611Z,99.90
2023-02-21T20:03:36.764Z,99.90
2023-02-21T20:06:04.081Z,99.90
2023-02-21T20:08:30.792Z,99.90
2023-02-21T20:10:57.556Z,99.90
2023-02-21T20:13:24.776Z,99.90
2023-02-21T20:15:51.385Z,99.90
2023-02-21T20:18:18.144Z,99.90
2023-02-21T20:20:46.523Z,99.90
2023-02-21T20:23:17.724Z,99.90
2023-02-21T20:25:47.135Z,99.90
2023-02-21T20:28:13.821Z,99.90
2023-02-21T20:30:40.481Z,99.90
2023-02-21T20:33:07.186Z,99.90
2023-02-21T20:35:35.968Z,99.90
2023-02-21T20:38:05.378Z,99.90
2023-02-21T20:40:32.544Z,99.90
2023-02-21T20:43:01.772Z,99.90
2023-02-21T20:45:30.901Z,99.90
2023-02-21T20:47:59.882Z,99.90
2023-02-21T20:50:26.578Z,99.90
2023-02-21T20:52:54.600Z,99.90
2023-02-21T20:55:22.427Z,99.90
2023-02-21T20:57:49.640Z,99.90
2023-02-21T21:00:16.480Z,99.90
2023-02-21T21:02:45.496Z,99.90
2023-02-21T21:05:16.720Z,99.90
2023-02-21T21:07:44.516Z,99.90
2023-02-21T21:10:14.469Z,99.90
2023-02-21T21:12:43.543Z,99.90
2023-02-21T21:15:10.497Z,99.90
2023-02-21T21:17:37.229Z,99.90
2023-02-21T21:20:10.407Z,99.90
2023-02-21T21:22:37.011Z,99.90
2023-02-21T21:25:04.731Z,99.90
2023-02-21T21:27:32.817Z,99.90
2023-02-21T21:30:01.029Z,99.90
2023-02-21T21:32:28.245Z,99.90
2023-02-21T21:34:56.113Z,99.90
2023-02-21T21:37:23.921Z,99.90
2023-02-21T21:39:54.393Z,99.90
2023-02-21T21:42:26.252Z,99.90
2023-02-21T21:44:56.733Z,99.90
2023-02-21T21:47:24.936Z,99.90
2023-02-21T21:49:51.550Z,99.90
2023-02-21T21:52:19.811Z,99.90
2023-02-21T21:54:47.191Z,99.90
2023-02-21T21:57:16.337Z,99.90
2023-02-21T21:59:43.602Z,99.90
2023-02-21T22:02:10.941Z,99.90
2023-02-21T22:04:40.470Z,99.90
2023-02-21T22:07:08.183Z,99.90
2023-02-21T22:09:35.455Z,99.90
2023-02-21T22:12:02.653Z,99.90
2023-02-21T22:14:29.313Z,99.90
2023-02-21T22:16:56.002Z,99.90
2023-02-21T22:19:24.100Z,99.90
2023-02-21T22:21:54.658Z,99.90
2023-02-21T22:24:24.315Z,99.90
2023-02-21T22:26:54.706Z,99.90
2023-02-21T22:29:22.496Z,99.90
2023-02-21T22:31:52.495Z,99.90
2023-02-21T22:34:25.379Z,99.90
2023-02-21T22:36:56.115Z,99.90
2023-02-21T22:39:23.447Z,99.90
2023-02-21T22:41:50.353Z,99.90
2023-02-21T22:44:17.471Z,99.90
2023-02-21T22:46:58.546Z,99.90
2023-02-21T22:49:26.576Z,99.90
2023-02-21T22:51:57.586Z,99.90
2023-02-21T22:54:24.561Z,99.90
2023-02-21T22:56:51.522Z,99.90
2023-02-21T22:59:19.248Z,99.90
2023-02-21T23:01:50.684Z,99.90
2023-02-21T23:04:25.450Z,99.90
2023-02-21T23:06:53.668Z,99.90
2023-02-21T23:09:20.416Z,99.90
2023-02-21T23:11:50.865Z,99.90
2023-02-21T23:14:18.496Z,99.90
2023-02-21T23:16:45.117Z,99.90
2023-02-21T23:19:15.287Z,99.90
2023-02-21T23:21:48.909Z,99.90
2023-02-21T23:24:16.441Z,99.90
2023-02-21T23:26:46.613Z,99.90
2023-02-21T23:29:16.128Z,99.90
2023-02-21T23:31:42.859Z,99.90
2023-02-21T23:34:14.223Z,99.90
2023-02-21T23:36:40.775Z,99.90
2023-02-21T23:39:09.921Z,99.90
2023-02-21T23:41:38.911Z,99.90
2023-02-21T23:44:06.973Z,99.90
2023-02-21T23:46:33.569Z,99.90
2023-02-21T23:49:03.558Z,99.90
2023-02-21T23:51:30.255Z,99.90
2023-02-21T23:53:56.884Z,99.90
2023-02-21T23:56:23.566Z,99.90
2023-02-21T23:58:50.309Z,99.90
